createdAt,value
2022-10-04T00:02:00.918Z,97369.59
2022-10-04T00:04:43.647Z,97375.52
2022-10-04T00:07:20.577Z,97375.81
2022-10-04T00:09:51.029Z,97378.27
2022-10-04T00:12:27.806Z,97383.96
2022-10-04T00:14:58.057Z,97380.56
2022-10-04T00:17:28.442Z,97379.91
2022-10-04T00:19:56.075Z,97381.09
2022-10-04T00:22:28.131Z,97382.27
2022-10-04T00:25:13.588Z,97384.48
2022-10-04T00:28:01.437Z,97385.66
2022-10-04T00:30:37.481Z,97382.55
2022-10-04T00:33:04.804Z,97382.72
2022-10-04T00:35:35.832Z,97384.64
2022-10-04T00:38:09.952Z,97381.24
2022-10-04T00:40:50.216Z,97382.19
2022-10-04T00:43:36.625Z,97378.29
2022-10-04T00:46:06.837Z,97378.67
2022-10-04T00:48:46.212Z,97380.41
2022-10-04T00:51:33.731Z,97373.36
2022-10-04T00:54:04.456Z,97382.57
2022-10-04T00:56:50.680Z,97383.80
2022-10-04T00:59:33.985Z,97381.83
2022-10-04T01:02:07.787Z,97379.50
2022-10-04T01:04:41.847Z,97381.22
2022-10-04T01:07:11.192Z,97382.38
2022-10-04T01:09:45.176Z,97387.27
2022-10-04T01:12:33.986Z,97383.81
2022-10-04T01:15:20.338Z,97382.15
2022-10-04T01:18:15.471Z,97378.36
2022-10-04T01:21:09.644Z,97379.70
2022-10-04T01:23:58.539Z,97381.59
2022-10-04T01:26:32.629Z,97386.48
2022-10-04T01:29:03.703Z,97382.53
2022-10-04T01:31:32.801Z,97377.45
2022-10-04T01:34:01.901Z,97379.44
2022-10-04T01:36:29.764Z,97385.64
2022-10-04T01:38:57.476Z,97381.73
2022-10-04T01:41:40.720Z,97385.05
2022-10-04T01:44:10.976Z,97386.73
2022-10-04T01:46:40.550Z,97390.05
2022-10-04T01:49:10.819Z,97394.08
2022-10-04T01:51:45.010Z,97392.73
2022-10-04T01:54:15.950Z,97393.02
2022-10-04T01:56:58.735Z,97396.25
2022-10-04T01:59:35.726Z,97394.36
2022-10-04T02:02:09.462Z,97398.61
2022-10-04T02:04:39.111Z,97399.66
2022-10-04T02:07:11.514Z,97399.28
2022-10-04T02:09:43.087Z,97397.11
2022-10-04T02:12:16.338Z,97401.03
2022-10-04T02:14:52.673Z,97403.89
2022-10-04T02:17:35.643Z,97399.81
2022-10-04T02:20:06.665Z,97401.10
2022-10-04T02:22:33.962Z,97405.06
2022-10-04T02:25:02.507Z,97402.85
2022-10-04T02:27:30.639Z,97401.22
2022-10-04T02:30:03.733Z,97406.26
2022-10-04T02:32:51.078Z,97403.34
2022-10-04T02:35:19.913Z,97415.69
2022-10-04T02:37:59.646Z,97413.80
2022-10-04T02:40:33.152Z,97412.41
2022-10-04T02:43:16.261Z,97419.05
2022-10-04T02:45:55.095Z,97417.15
2022-10-04T02:48:49.525Z,97414.97
2022-10-04T02:51:31.575Z,97415.67
2022-10-04T02:54:08.604Z,97420.18
2022-10-04T02:56:36.600Z,97417.27
2022-10-04T02:59:05.722Z,97423.41
2022-10-04T03:01:54.341Z,97427.98
2022-10-04T03:04:24.178Z,97422.36
2022-10-04T03:06:52.292Z,97429.88
2022-10-04T03:09:25.054Z,97425.30
2022-10-04T03:11:51.911Z,97430.34
2022-10-04T03:14:34.332Z,97432.56
2022-10-04T03:17:05.323Z,97434.97
2022-10-04T03:19:38.062Z,97433.63
2022-10-04T03:22:10.444Z,97438.99
2022-10-04T03:24:49.915Z,97440.33
2022-10-04T03:27:29.260Z,97432.62
2022-10-04T03:29:59.382Z,97435.77
2022-10-04T03:32:29.622Z,97441.84
2022-10-04T03:34:59.880Z,97431.39
2022-10-04T03:37:29.597Z,97440.69
2022-10-04T03:39:58.027Z,97439.11
2022-10-04T03:42:31.918Z,97440.34
2022-10-04T03:45:12.621Z,97442.20
2022-10-04T03:47:46.172Z,97445.48
2022-10-04T03:50:24.310Z,97445.58
2022-10-04T03:52:54.207Z,97446.19
2022-10-04T03:55:24.127Z,97457.19
2022-10-04T03:57:52.207Z,97460.75
2022-10-04T04:00:20.283Z,97472.57
2022-10-04T04:02:59.393Z,97467.21
2022-10-04T04:05:32.096Z,97468.23
2022-10-04T04:08:09.039Z,97469.80
2022-10-04T04:10:46.081Z,97474.09
2022-10-04T04:13:16.987Z,97478.57
2022-10-04T04:15:45.080Z,97480.41
2022-10-04T04:18:18.540Z,97481.38
2022-10-04T04:20:46.782Z,97476.98
2022-10-04T04:23:32.358Z,97478.55
2022-10-04T04:26:03.285Z,97479.05
2022-10-04T04:28:37.463Z,97487.09
2022-10-04T04:31:29.706Z,97483.63
2022-10-04T04:34:00.858Z,97485.52
2022-10-04T04:36:32.992Z,97488.20
2022-10-04T04:39:33.758Z,97489.04
2022-10-04T04:42:16.127Z,97489.04
2022-10-04T04:44:59.712Z,97500.55
2022-10-04T04:47:29.594Z,97494.40
2022-10-04T04:49:58.448Z,97499.52
2022-10-04T04:52:28.147Z,97505.67
2022-10-04T04:54:56.194Z,97506.78
2022-10-04T04:57:23.489Z,97512.38
2022-10-04T04:59:53.566Z,97515.05
2022-10-04T05:02:34.481Z,97516.63
2022-10-04T05:05:25.245Z,97527.05
2022-10-04T05:08:10.933Z,97520.03
2022-10-04T05:10:43.961Z,97528.58
2022-10-04T05:13:11.256Z,97531.72
2022-10-04T05:15:40.374Z,97530.09
2022-10-04T05:18:30.166Z,97529.22
2022-10-04T05:21:00.957Z,97541.89
2022-10-04T05:23:28.320Z,97543.06
2022-10-04T05:25:55.882Z,97553.36
2022-10-04T05:28:23.454Z,97555.54
2022-10-04T05:31:00.475Z,97553.41
2022-10-04T05:33:40.428Z,97555.91
2022-10-04T05:36:14.212Z,97560.43
2022-10-04T05:38:54.294Z,97566.53
2022-10-04T05:41:25.123Z,97567.23
2022-10-04T05:43:52.711Z,97572.35
2022-10-04T05:46:33.425Z,97565.47
2022-10-04T05:49:07.826Z,97569.20
2022-10-04T05:51:37.757Z,97575.95
2022-10-04T05:54:05.337Z,97583.62
2022-10-04T05:56:54.425Z,97578.45
2022-10-04T05:59:28.071Z,97584.73
2022-10-04T06:02:08.419Z,97583.05
2022-10-04T06:04:51.402Z,97575.23
2022-10-04T06:07:37.518Z,97579.89
2022-10-04T06:10:20.797Z,97579.14
2022-10-04T06:13:07.384Z,97583.45
2022-10-04T06:15:47.453Z,97595.30
2022-10-04T06:18:30.643Z,97599.02
2022-10-04T06:21:07.888Z,97594.70
2022-10-04T06:23:38.107Z,97602.50
2022-10-04T06:26:09.113Z,97603.53
2022-10-04T06:28:42.947Z,97606.71
2022-10-04T06:31:26.084Z,97613.27
2022-10-04T06:34:30.684Z,97625.02
2022-10-04T06:37:19.933Z,97630.42
2022-10-04T06:40:18.666Z,97630.63
2022-10-04T06:43:17.970Z,97632.98
2022-10-04T06:46:13.203Z,97634.47
2022-10-04T06:49:03.877Z,97641.34
2022-10-04T06:51:44.462Z,97648.38
2022-10-04T06:54:24.696Z,97657.84
2022-10-04T06:57:23.168Z,97653.11
2022-10-04T07:00:14.966Z,97655.80
2022-10-04T07:03:01.699Z,97662.80
2022-10-04T07:05:54.110Z,97663.69
2022-10-04T07:08:31.927Z,97665.60
2022-10-04T07:11:36.513Z,97662.09
2022-10-04T07:14:06.255Z,97665.59
2022-10-04T07:16:54.491Z,97664.88
2022-10-04T07:19:34.831Z,97670.85
2022-10-04T07:22:14.656Z,97674.51
2022-10-04T07:24:54.941Z,97679.89
2022-10-04T07:27:47.437Z,97683.66
2022-10-04T07:30:16.671Z,97679.73
2022-10-04T07:32:45.784Z,97682.23
2022-10-04T07:35:35.493Z,97688.75
2022-10-04T07:38:15.592Z,97686.81
2022-10-04T07:41:18.104Z,97691.13
2022-10-04T07:43:52.847Z,97687.23
2022-10-04T07:46:30.052Z,97696.88
2022-10-04T07:48:57.659Z,97695.80
2022-10-04T07:51:41.077Z,97690.82
2022-10-04T07:54:21.528Z,97692.53
2022-10-04T07:56:59.961Z,97694.85
2022-10-04T07:59:36.897Z,97694.27
2022-10-04T08:02:24.778Z,97692.46
2022-10-04T08:05:12.925Z,97703.11
2022-10-04T08:08:02.179Z,97702.48
2022-10-04T08:10:45.201Z,97702.43
2022-10-04T08:13:22.704Z,97705.75
2022-10-04T08:15:52.178Z,97708.41
2022-10-04T08:18:26.876Z,97710.59
2022-10-04T08:21:03.345Z,97707.41
2022-10-04T08:23:58.589Z,97711.98
2022-10-04T08:26:29.619Z,97709.23
2022-10-04T08:29:21.872Z,97712.05
2022-10-04T08:32:05.773Z,97713.39
2022-10-04T08:35:01.539Z,97720.67
2022-10-04T08:37:35.380Z,97725.19
2022-10-04T08:40:24.574Z,97725.67
2022-10-04T08:42:55.468Z,97726.34
2022-10-04T08:45:58.469Z,97726.95
2022-10-04T08:48:58.321Z,97731.42
2022-10-04T08:51:47.630Z,97736.25
2022-10-04T08:54:45.822Z,97731.51
2022-10-04T08:57:50.336Z,97733.98
2022-10-04T09:00:21.071Z,97741.08
2022-10-04T09:03:15.988Z,97742.12
2022-10-04T09:06:02.183Z,97748.30
2022-10-04T09:08:47.784Z,97755.70
2022-10-04T09:11:46.320Z,97755.09
2022-10-04T09:14:35.357Z,97757.34
2022-10-04T09:17:22.066Z,97752.81
2022-10-04T09:20:33.832Z,97753.19
2022-10-04T09:23:06.350Z,97750.21
2022-10-04T09:25:51.200Z,97753.16
2022-10-04T09:28:50.526Z,97747.14
2022-10-04T09:31:29.113Z,97744.72
2022-10-04T09:34:19.709Z,97755.09
2022-10-04T09:37:02.383Z,97757.07
2022-10-04T09:39:40.044Z,97759.86
2022-10-04T09:42:44.885Z,97768.30
2022-10-04T09:45:22.759Z,97761.45
2022-10-04T09:48:10.514Z,97762.26
2022-10-04T09:50:51.559Z,97759.17
2022-10-04T09:53:22.599Z,97763.47
2022-10-04T09:56:03.777Z,97756.36
2022-10-04T09:58:35.662Z,97758.75
2022-10-04T10:01:16.550Z,97755.45
2022-10-04T10:04:06.447Z,97762.31
2022-10-04T10:06:39.202Z,97763.56
2022-10-04T10:09:51.635Z,97766.37
2022-10-04T10:13:00.798Z,97762.66
2022-10-04T10:15:55.129Z,97764.16
2022-10-04T10:18:28.821Z,97756.31
2022-10-04T10:21:14.531Z,97762.94
2022-10-04T10:23:45.327Z,97749.29
2022-10-04T10:26:25.364Z,97753.99
2022-10-04T10:29:11.934Z,97745.61
2022-10-04T10:32:09.760Z,97750.83
2022-10-04T10:34:51.596Z,97755.89
2022-10-04T10:37:53.019Z,97749.13
2022-10-04T10:40:33.066Z,97744.19
2022-10-04T10:43:39.701Z,97740.80
2022-10-04T10:46:38.237Z,97732.88
2022-10-04T10:49:22.363Z,97733.53
2022-10-04T10:52:14.533Z,97728.09
2022-10-04T10:55:07.166Z,97733.03
2022-10-04T10:57:55.479Z,97729.40
2022-10-04T11:00:56.935Z,97733.61
2022-10-04T11:03:48.837Z,97723.59
2022-10-04T11:06:33.609Z,97730.57
2022-10-04T11:09:29.598Z,97738.05
2022-10-04T11:12:21.451Z,97730.16
2022-10-04T11:15:07.516Z,97732.66
2022-10-04T11:17:50.774Z,97730.74
2022-10-04T11:20:42.949Z,97730.09
2022-10-04T11:23:48.568Z,97729.31
2022-10-04T11:26:47.434Z,97730.73
2022-10-04T11:29:34.730Z,97748.78
2022-10-04T11:32:07.572Z,97745.48
2022-10-04T11:34:50.725Z,97751.22
2022-10-04T11:37:31.043Z,97747.54
2022-10-04T11:40:23.601Z,97742.98
2022-10-04T11:42:57.865Z,97742.00
2022-10-04T11:46:08.626Z,97750.99
2022-10-04T11:48:40.863Z,97755.03
2022-10-04T11:51:37.441Z,97757.33
2022-10-04T11:54:08.492Z,97755.61
2022-10-04T11:56:55.890Z,97752.06
2022-10-04T11:59:29.921Z,97747.86
2022-10-04T12:02:20.601Z,97756.02
2022-10-04T12:05:17.134Z,97748.38
2022-10-04T12:08:02.902Z,97749.16
2022-10-04T12:10:41.414Z,97759.18
2022-10-04T12:13:24.293Z,97751.80
2022-10-04T12:15:55.123Z,97760.91
2022-10-04T12:18:41.344Z,97761.16
2022-10-04T12:21:35.369Z,97761.47
2022-10-04T12:24:15.577Z,97756.87
2022-10-04T12:26:57.362Z,97760.44
2022-10-04T12:29:50.887Z,97756.36
2022-10-04T12:32:28.984Z,97771.89
2022-10-04T12:35:23.387Z,97774.48
2022-10-04T12:38:12.202Z,97753.94
2022-10-04T12:40:58.254Z,97757.71
2022-10-04T12:43:32.222Z,97746.58
2022-10-04T12:46:12.034Z,97753.58
2022-10-04T12:49:00.827Z,97747.63
2022-10-04T12:51:55.812Z,97753.85
2022-10-04T12:54:35.976Z,97753.09
2022-10-04T12:57:06.744Z,97743.34
2022-10-04T12:59:40.289Z,97746.61
2022-10-04T13:02:27.701Z,97751.79
2022-10-04T13:05:01.625Z,97757.05
2022-10-04T13:07:51.311Z,97756.77
2022-10-04T13:10:25.858Z,97755.46
2022-10-04T13:13:25.552Z,97762.97
2022-10-04T13:18:34.634Z,97773.52
2022-10-04T13:21:05.549Z,97775.20
2022-10-04T13:23:48.918Z,97777.17
2022-10-04T13:26:28.600Z,97777.02
2022-10-04T13:29:03.697Z,97781.28
2022-10-04T13:31:40.937Z,97781.41
2022-10-04T13:34:27.033Z,97782.63
2022-10-04T13:37:14.400Z,97791.77
2022-10-04T13:40:03.571Z,97785.50
2022-10-04T13:42:47.403Z,97784.76
2022-10-04T13:45:32.264Z,97781.41
2022-10-04T13:48:13.671Z,97776.37
2022-10-04T13:50:45.390Z,97784.64
2022-10-04T13:54:01.621Z,97794.12
2022-10-04T13:56:55.041Z,97787.77
2022-10-04T13:59:34.393Z,97791.84
2022-10-04T14:02:06.711Z,97792.19
2022-10-04T14:04:58.718Z,97796.70
2022-10-04T14:07:47.611Z,97795.59
2022-10-04T14:10:18.925Z,97796.27
2022-10-04T14:13:09.557Z,97794.60
2022-10-04T14:15:53.168Z,97800.81
2022-10-04T14:18:44.583Z,97807.56
2022-10-04T14:21:21.276Z,97822.80
2022-10-04T14:24:13.232Z,97832.45
2022-10-04T14:26:45.813Z,97833.69
2022-10-04T14:29:35.152Z,97828.33
2022-10-04T14:32:19.712Z,97836.63
2022-10-04T14:35:11.189Z,97838.36
2022-10-04T14:38:16.545Z,97847.52
2022-10-04T14:40:59.440Z,97846.88
2022-10-04T14:43:42.459Z,97858.19
2022-10-04T14:46:31.780Z,97850.25
2022-10-04T14:49:02.472Z,97851.98
2022-10-04T14:51:56.196Z,97849.31
2022-10-04T14:54:28.489Z,97846.06
2022-10-04T14:57:02.860Z,97855.45
2022-10-04T14:59:52.566Z,97850.63
2022-10-04T15:02:31.072Z,97856.80
2022-10-04T15:05:31.565Z,97863.89
2022-10-04T15:08:24.427Z,97863.10
2022-10-04T15:11:00.821Z,97869.28
2022-10-04T15:13:58.030Z,97872.46
2022-10-04T15:16:44.030Z,97875.95
2022-10-04T15:19:24.137Z,97880.64
2022-10-04T15:22:06.723Z,97883.42
2022-10-04T15:24:46.213Z,97891.59
2022-10-04T15:27:32.132Z,97893.13
2022-10-04T15:30:30.210Z,97896.25
2022-10-04T15:33:21.647Z,97902.59
2022-10-04T15:36:18.077Z,97906.27
2022-10-04T15:38:53.967Z,97905.97
2022-10-04T15:41:43.356Z,97911.11
2022-10-04T15:44:18.223Z,97911.14
2022-10-04T15:46:50.704Z,97919.23
2022-10-04T15:49:30.688Z,97925.77
2022-10-04T15:52:24.633Z,97924.11
2022-10-04T15:55:14.771Z,97934.81
2022-10-04T15:57:48.812Z,97929.97
2022-10-04T16:00:25.092Z,97943.67
2022-10-04T16:03:14.141Z,97944.14
2022-10-04T16:05:47.091Z,97951.67
2022-10-04T16:08:27.098Z,97955.69
2022-10-04T16:11:21.400Z,97965.41
2022-10-04T16:13:56.271Z,97967.60
2022-10-04T16:16:33.207Z,97974.88
2022-10-04T16:19:23.729Z,97974.54
2022-10-04T16:21:54.095Z,97980.05
2022-10-04T16:24:28.316Z,97988.27
2022-10-04T16:27:04.315Z,97986.98
2022-10-04T16:30:25.499Z,97994.89
2022-10-04T16:32:46.352Z,98005.97
2022-10-04T16:35:42.870Z,98010.86
2022-10-04T16:38:16.917Z,98016.56
2022-10-04T16:40:54.073Z,98017.97
2022-10-04T16:43:24.020Z,98021.20
2022-10-04T16:46:12.967Z,98020.09
2022-10-04T16:48:59.042Z,98024.92
2022-10-04T16:51:57.056Z,98026.50
2022-10-04T16:54:49.433Z,98034.28
2022-10-04T16:57:21.692Z,98031.83
2022-10-04T16:59:52.627Z,98032.88
2022-10-04T17:02:35.409Z,98035.30
2022-10-04T17:05:29.013Z,98039.34
2022-10-04T17:08:03.757Z,98044.16
2022-10-04T17:10:49.644Z,98044.48
2022-10-04T17:13:49.294Z,98048.76
2022-10-04T17:16:21.267Z,98048.20
2022-10-04T17:19:10.356Z,98050.71
2022-10-04T17:22:03.854Z,98050.63
2022-10-04T17:24:43.255Z,98048.60
2022-10-04T17:27:34.528Z,98060.31
2022-10-04T17:30:21.272Z,98059.72
2022-10-04T17:33:22.232Z,98064.97
2022-10-04T17:35:56.307Z,98070.95
2022-10-04T17:38:54.378Z,98069.48
2022-10-04T17:41:41.761Z,98076.02
2022-10-04T17:44:19.228Z,98075.91
2022-10-04T17:47:05.441Z,98083.84
2022-10-04T17:50:11.541Z,98082.59
2022-10-04T17:53:10.046Z,98086.76
2022-10-04T17:55:55.339Z,98093.05
2022-10-04T17:58:25.496Z,98103.61
2022-10-04T18:01:01.416Z,98098.83
2022-10-04T18:03:53.573Z,98111.52
2022-10-04T18:06:39.931Z,98106.52
2022-10-04T18:09:17.222Z,98113.03
2022-10-04T18:11:51.906Z,98106.72
2022-10-04T18:14:25.777Z,98108.71
2022-10-04T18:17:00.183Z,98114.75
2022-10-04T18:19:48.022Z,98115.62
2022-10-04T18:22:19.232Z,98118.72
2022-10-04T18:24:48.068Z,98124.20
2022-10-04T18:27:23.821Z,98124.08
2022-10-04T18:30:14.115Z,98133.03
2022-10-04T18:32:52.313Z,98126.98
2022-10-04T18:35:31.546Z,98132.44
2022-10-04T18:38:05.563Z,98133.87
2022-10-04T18:40:34.877Z,98137.98
2022-10-04T18:43:02.278Z,98146.14
2022-10-04T18:45:33.829Z,98151.89
2022-10-04T18:48:18.051Z,98160.83
2022-10-04T18:50:46.677Z,98161.99
2022-10-04T18:53:31.545Z,98164.53
2022-10-04T18:56:04.244Z,98167.89
2022-10-04T18:59:19.507Z,98182.16
2022-10-04T19:02:03.365Z,98180.09
2022-10-04T19:04:53.715Z,98185.48
2022-10-04T19:07:30.549Z,98188.47
2022-10-04T19:10:25.923Z,98183.89
2022-10-04T19:13:28.509Z,98184.20
2022-10-04T19:16:15.064Z,98188.71
2022-10-04T19:18:57.987Z,98188.47
2022-10-04T19:21:34.742Z,98195.69
2022-10-04T19:24:22.577Z,98195.94
2022-10-04T19:26:58.856Z,98189.23
2022-10-04T19:29:44.994Z,98192.16
2022-10-04T19:32:15.985Z,98194.59
2022-10-04T19:34:56.082Z,98197.06
2022-10-04T19:37:58.900Z,98198.73
2022-10-04T19:40:53.866Z,98202.54
2022-10-04T19:43:31.135Z,98204.40
2022-10-04T19:46:14.034Z,98204.16
2022-10-04T19:48:44.945Z,98207.08
2022-10-04T19:51:21.768Z,98211.65
2022-10-04T19:53:50.264Z,98217.86
2022-10-04T19:56:19.881Z,98215.20
2022-10-04T19:58:57.821Z,98217.09
2022-10-04T20:01:25.645Z,98212.01
2022-10-04T20:04:11.441Z,98214.98
2022-10-04T20:06:58.222Z,98215.87
2022-10-04T20:09:43.241Z,98223.72
2022-10-04T20:12:29.379Z,98228.86
2022-10-04T20:15:22.715Z,98235.09
2022-10-04T20:17:49.621Z,98245.30
2022-10-04T20:20:37.752Z,98240.05
2022-10-04T20:23:09.665Z,98243.84
2022-10-04T20:25:50.035Z,98246.82
2022-10-04T20:28:30.001Z,98248.95
2022-10-04T20:30:59.685Z,98254.02
2022-10-04T20:33:38.323Z,98249.72
2022-10-04T20:36:21.208Z,98252.35
2022-10-04T20:38:59.134Z,98257.14
2022-10-04T20:41:51.025Z,98254.69
2022-10-04T20:44:42.434Z,98252.78
2022-10-04T20:47:40.509Z,98250.07
2022-10-04T20:50:11.282Z,98255.41
2022-10-04T20:52:44.077Z,98269.83
2022-10-04T20:55:21.060Z,98268.73
2022-10-04T20:57:48.552Z,98276.45
2022-10-04T21:00:25.131Z,98285.02
2022-10-04T21:03:09.199Z,98285.26
2022-10-04T21:05:38.668Z,98283.89
2022-10-04T21:08:21.726Z,98292.42
2022-10-04T21:11:06.901Z,98290.27
2022-10-04T21:13:42.806Z,98290.52
2022-10-04T21:16:10.494Z,98295.06
2022-10-04T21:18:37.886Z,98292.92
2022-10-04T21:21:05.357Z,98293.99
2022-10-04T21:23:34.241Z,98287.34
2022-10-04T21:26:24.538Z,98288.69
2022-10-04T21:28:59.034Z,98287.06
2022-10-04T21:31:26.631Z,98288.70
2022-10-04T21:33:53.897Z,98301.89
2022-10-04T21:36:21.118Z,98293.37
2022-10-04T21:38:48.401Z,98289.41
2022-10-04T21:41:15.757Z,98289.75
2022-10-04T21:43:43.464Z,98300.02
2022-10-04T21:46:10.669Z,98299.54
2022-10-04T21:48:37.945Z,98305.47
2022-10-04T21:51:05.249Z,98304.97
2022-10-04T21:53:32.446Z,98307.13
2022-10-04T21:55:59.807Z,98307.92
2022-10-04T21:58:27.209Z,98310.33
2022-10-04T22:00:54.552Z,98305.77
2022-10-04T22:03:21.946Z,98312.41
2022-10-04T22:05:49.079Z,98313.98
2022-10-04T22:08:16.319Z,98315.55
2022-10-04T22:10:45.019Z,98315.83
2022-10-04T22:13:12.107Z,98313.91
2022-10-04T22:15:39.497Z,98313.08
2022-10-04T22:18:06.660Z,98315.19
2022-10-04T22:20:34.308Z,98325.09
2022-10-04T22:23:01.858Z,98326.38
2022-10-04T22:25:29.107Z,98325.04
2022-10-04T22:27:56.393Z,98332.04
2022-10-04T22:30:29.344Z,98333.42
2022-10-04T22:32:58.714Z,98335.08
2022-10-04T22:35:28.984Z,98333.51
2022-10-04T22:37:56.241Z,98340.75
2022-10-04T22:40:25.100Z,98333.81
2022-10-04T22:42:54.846Z,98340.20
2022-10-04T22:45:29.868Z,98341.30
2022-10-04T22:47:59.376Z,98338.91
2022-10-04T22:50:29.898Z,98338.39
2022-10-04T22:52:58.249Z,98347.52
2022-10-04T22:55:25.756Z,98345.42
2022-10-04T22:57:53.047Z,98357.80
2022-10-04T23:00:20.279Z,98355.67
2022-10-04T23:02:47.594Z,98358.38
2022-10-04T23:05:17.617Z,98365.61
2022-10-04T23:07:45.650Z,98363.79
2022-10-04T23:10:14.559Z,98367.28
2022-10-04T23:12:46.990Z,98370.52
2022-10-04T23:15:17.558Z,98362.84
2022-10-04T23:17:46.663Z,98369.27
2022-10-04T23:20:17.034Z,98370.91
2022-10-04T23:22:47.079Z,98368.80
2022-10-04T23:25:28.633Z,98372.56
2022-10-04T23:28:02.309Z,98377.91
2022-10-04T23:30:29.652Z,98375.77
2022-10-04T23:32:57.760Z,98374.93
2022-10-04T23:35:26.407Z,98373.05
2022-10-04T23:37:54.609Z,98376.50
2022-10-04T23:40:23.237Z,98381.84
2022-10-04T23:42:52.116Z,98383.97
2022-10-04T23:45:21.490Z,98389.85
2022-10-04T23:47:57.126Z,98385.80
2022-10-04T23:50:33.470Z,98392.22
2022-10-04T23:53:03.999Z,98396.74
2022-10-04T23:55:34.889Z,98391.38
2022-10-04T23:58:04.603Z,98400.75
